Ester, AK (99725)

2:28 PM AKDT on August 04, 2015 (GMT -0800)
EsterOldRidgeTrl | | Change Station
CLOSE
Current Station
Personal Weather Station
Location: Fairbanks, AK
Elevation: 1200 ft
Nearby Weather Stations

Elev 1200 ft 64.83 °N, 148.18 °W | Updated 5 minutes ago

Scattered Clouds
Scattered Clouds
75.9 °F
Feels Like 78 °F
N
1.1
Wind Variable Wind from NE

Today
High -- | Low -- °F
--% Chance of Precip.
Yesterday
High -- | Low -- °F
Precip. -- in
5:01 AM 10:53 PM
Waning Gibbous, 74% visible
Pressure 29.92 in
Visibility 10.0 miles
Clouds Few 4800 ft
Few 15000 ft
Scattered Clouds 22000 ft
Heat Index 78 °F
Dew Point 60 °F
Humidity 57%
Rainfall 0.00 in
Snow Depth Not available.
UV 5 out of 12
Pollen Not available.
Air Quality Not available.
Flu Activity Not available.
METAR PAFA 042153Z 00000KT 10SM FEW048 FEW150 SCT220 24/12 A2991 RMK AO2 SLP132 T02390117

More Conditions Fewer Conditions

Pressure 29.92 in
Visibility 10.0 miles
Clouds Few 4800 ft
Few 15000 ft
Scattered Clouds 22000 ft
Heat Index 78 °F
Dew Point 60 °F
Humidity 57%
Rainfall 0.00 in
Snow Depth Not available.
UV 5 out of 12
Pollen Not available.
Air Quality Not available.
Flu Activity Not available.
METAR PAFA 042153Z 00000KT 10SM FEW048 FEW150 SCT220 24/12 A2991 RMK AO2 SLP132 T02390117

More Conditions Fewer Conditions

10-Day Weather Forecast

×

Almanac

Astronomy

Aug. 04, 2015 Rise Set
Actual Time
Civil Twilight
Nautical Twilight
Astronomical Twilight
Moon
Length of Visible Light
Length of Day
Tomorrow will be .
, % of the Moon is Illuminated

Today's Extremes

State Highs State Lows

Community

WunderPhotos

Upload Photos

1,844,007 photos uploaded!

WunderBlogs® & News

Nearby

Air Quality

  Air Quality AQ Index Pollutant
Not available.

Snow Depth

Station Depth Elevation

Earthquake Activity

City Distance Mag. Time & Date
Minimum magnitude displayed is 2.5.

Coastal Water Temperatures

Place Temperature

Stations

Nearby Weather Stations

Station Location Temp. Windchill Dew Point Humidity Wind Precip. Elev Updated Type